sensor_id;sensor_type;location;lat;lon;timestamp;pressure;altitude;pressure_sealevel;temperature;humidity
11124;BME280;5616;42.692;23.312;2023-12-22T00:02:18;93671.06;;;2.74;86.68
11124;BME280;5616;42.692;23.312;2023-12-22T00:04:46;93674.03;;;2.77;86.69
11124;BME280;5616;42.692;23.312;2023-12-22T00:07:13;93653.16;;;2.82;86.12
11124;BME280;5616;42.692;23.312;2023-12-22T00:09:40;93650.91;;;2.87;85.99
11124;BME280;5616;42.692;23.312;2023-12-22T00:12:07;93654.97;;;2.73;86.49
11124;BME280;5616;42.692;23.312;2023-12-22T00:14:33;93651.28;;;2.76;87.16
11124;BME280;5616;42.692;23.312;2023-12-22T00:17:00;93644.72;;;2.81;86.79
11124;BME280;5616;42.692;23.312;2023-12-22T00:19:27;93651.53;;;2.89;86.77
11124;BME280;5616;42.692;23.312;2023-12-22T00:21:55;93640.00;;;2.93;86.65
11124;BME280;5616;42.692;23.312;2023-12-22T00:24:23;93637.78;;;2.90;86.07
11124;BME280;5616;42.692;23.312;2023-12-22T00:26:50;93642.56;;;2.93;86.53
11124;BME280;5616;42.692;23.312;2023-12-22T00:29:16;93618.00;;;3.00;85.36
11124;BME280;5616;42.692;23.312;2023-12-22T00:31:43;93619.84;;;3.06;84.66
11124;BME280;5616;42.692;23.312;2023-12-22T00:34:10;93609.56;;;3.14;84.42
11124;BME280;5616;42.692;23.312;2023-12-22T00:36:37;93613.09;;;3.13;85.41
11124;BME280;5616;42.692;23.312;2023-12-22T00:39:05;93605.94;;;3.08;85.34
11124;BME280;5616;42.692;23.312;2023-12-22T00:41:33;93594.00;;;3.09;85.80
11124;BME280;5616;42.692;23.312;2023-12-22T00:43:59;93608.50;;;3.08;85.11
11124;BME280;5616;42.692;23.312;2023-12-22T00:46:26;93603.38;;;2.94;86.16
11124;BME280;5616;42.692;23.312;2023-12-22T00:48:53;93603.91;;;3.04;86.25
11124;BME280;5616;42.692;23.312;2023-12-22T00:51:19;93589.97;;;3.15;85.58
11124;BME280;5616;42.692;23.312;2023-12-22T00:53:46;93608.34;;;3.10;84.60
11124;BME280;5616;42.692;23.312;2023-12-22T00:56:14;93594.72;;;3.18;85.10
11124;BME280;5616;42.692;23.312;2023-12-22T00:58:41;93599.03;;;3.17;84.25
11124;BME280;5616;42.692;23.312;2023-12-22T01:01:07;93586.97;;;3.11;85.19
11124;BME280;5616;42.692;23.312;2023-12-22T01:03:34;93587.94;;;3.10;85.41
11124;BME280;5616;42.692;23.312;2023-12-22T01:06:01;93589.69;;;3.09;85.90
11124;BME280;5616;42.692;23.312;2023-12-22T01:08:28;93595.06;;;3.15;85.92
11124;BME280;5616;42.692;23.312;2023-12-22T01:10:54;93606.19;;;2.99;84.85
11124;BME280;5616;42.692;23.312;2023-12-22T01:13:22;93601.66;;;3.09;85.88
11124;BME280;5616;42.692;23.312;2023-12-22T01:15:49;93601.59;;;3.17;84.36
11124;BME280;5616;42.692;23.312;2023-12-22T01:18:16;93594.31;;;3.29;84.49
11124;BME280;5616;42.692;23.312;2023-12-22T01:20:43;93599.69;;;3.34;84.31
11124;BME280;5616;42.692;23.312;2023-12-22T01:23:12;93591.84;;;3.35;84.88
11124;BME280;5616;42.692;23.312;2023-12-22T01:25:42;93586.88;;;3.42;83.95
11124;BME280;5616;42.692;23.312;2023-12-22T01:28:08;93585.72;;;3.44;82.94
11124;BME280;5616;42.692;23.312;2023-12-22T01:30:36;93590.28;;;3.34;83.03
11124;BME280;5616;42.692;23.312;2023-12-22T01:33:03;93573.38;;;3.33;82.93
11124;BME280;5616;42.692;23.312;2023-12-22T01:35:30;93568.28;;;3.19;84.69
11124;BME280;5616;42.692;23.312;2023-12-22T01:37:57;93566.69;;;3.32;84.01
11124;BME280;5616;42.692;23.312;2023-12-22T01:40:24;93569.16;;;3.40;84.09
11124;BME280;5616;42.692;23.312;2023-12-22T01:42:51;93565.66;;;3.41;83.25
11124;BME280;5616;42.692;23.312;2023-12-22T01:45:18;93557.31;;;3.47;83.56
11124;BME280;5616;42.692;23.312;2023-12-22T01:47:46;93562.75;;;3.44;83.17
11124;BME280;5616;42.692;23.312;2023-12-22T01:50:14;93552.63;;;3.51;83.43
11124;BME280;5616;42.692;23.312;2023-12-22T01:52:42;93550.19;;;3.57;82.68
11124;BME280;5616;42.692;23.312;2023-12-22T01:55:11;93555.09;;;3.44;83.12
11124;BME280;5616;42.692;23.312;2023-12-22T01:57:39;93546.94;;;3.49;83.59
11124;BME280;5616;42.692;23.312;2023-12-22T02:00:08;93544.03;;;3.52;82.68
11124;BME280;5616;42.692;23.312;2023-12-22T02:02:38;93541.47;;;3.52;83.46
11124;BME280;5616;42.692;23.312;2023-12-22T02:05:09;93548.59;;;3.56;82.72
11124;BME280;5616;42.692;23.312;2023-12-22T02:07:38;93545.44;;;3.54;83.89
11124;BME280;5616;42.692;23.312;2023-12-22T02:10:06;93537.59;;;3.56;82.94
11124;BME280;5616;42.692;23.312;2023-12-22T02:12:34;93543.50;;;3.56;83.41
11124;BME280;5616;42.692;23.312;2023-12-22T02:15:01;93532.75;;;3.61;82.96
11124;BME280;5616;42.692;23.312;2023-12-22T02:17:33;93533.38;;;3.63;82.79
11124;BME280;5616;42.692;23.312;2023-12-22T02:20:03;93527.41;;;3.70;81.95
11124;BME280;5616;42.692;23.312;2023-12-22T02:22:32;93532.75;;;3.61;82.82
11124;BME280;5616;42.692;23.312;2023-12-22T02:24:58;93534.59;;;3.67;82.13
11124;BME280;5616;42.692;23.312;2023-12-22T02:27:29;93537.25;;;3.74;82.99
11124;BME280;5616;42.692;23.312;2023-12-22T02:30:05;93531.25;;;3.81;82.32
11124;BME280;5616;42.692;23.312;2023-12-22T02:32:35;93526.16;;;3.81;82.10
11124;BME280;5616;42.692;23.312;2023-12-22T02:35:05;93535.94;;;3.63;82.80
11124;BME280;5616;42.692;23.312;2023-12-22T02:37:36;93523.84;;;3.71;82.84
11124;BME280;5616;42.692;23.312;2023-12-22T02:40:04;93532.31;;;3.57;82.99
11124;BME280;5616;42.692;23.312;2023-12-22T02:42:32;93533.53;;;3.61;83.57
11124;BME280;5616;42.692;23.312;2023-12-22T02:44:59;93522.81;;;3.66;83.25
11124;BME280;5616;42.692;23.312;2023-12-22T02:47:26;93524.66;;;3.57;83.03
11124;BME280;5616;42.692;23.312;2023-12-22T02:49:54;93528.47;;;3.47;83.82
11124;BME280;5616;42.692;23.312;2023-12-22T02:52:21;93512.88;;;3.56;84.00
11124;BME280;5616;42.692;23.312;2023-12-22T02:54:49;93507.94;;;3.69;82.17
11124;BME280;5616;42.692;23.312;2023-12-22T02:57:15;93503.38;;;3.65;82.55
11124;BME280;5616;42.692;23.312;2023-12-22T02:59:42;93494.31;;;3.62;82.72
11124;BME280;5616;42.692;23.312;2023-12-22T03:02:09;93497.31;;;3.66;82.61
11124;BME280;5616;42.692;23.312;2023-12-22T03:04:36;93501.53;;;3.74;82.93
11124;BME280;5616;42.692;23.312;2023-12-22T03:07:02;93516.94;;;3.65;82.71
11124;BME280;5616;42.692;23.312;2023-12-22T03:09:29;93505.56;;;3.68;83.48
11124;BME280;5616;42.692;23.312;2023-12-22T03:11:58;93497.91;;;3.53;82.51
11124;BME280;5616;42.692;23.312;2023-12-22T03:14:28;93497.56;;;3.56;84.33
11124;BME280;5616;42.692;23.312;2023-12-22T03:16:55;93509.00;;;3.60;83.15
11124;BME280;5616;42.692;23.312;2023-12-22T03:19:21;93507.41;;;3.59;83.57
11124;BME280;5616;42.692;23.312;2023-12-22T03:21:49;93502.66;;;3.56;83.08
11124;BME280;5616;42.692;23.312;2023-12-22T03:24:15;93509.44;;;3.49;84.22
11124;BME280;5616;42.692;23.312;2023-12-22T03:26:44;93501.50;;;3.59;83.22
11124;BME280;5616;42.692;23.312;2023-12-22T03:29:12;93501.63;;;3.65;82.43
11124;BME280;5616;42.692;23.312;2023-12-22T03:31:38;93509.34;;;3.72;82.65
11124;BME280;5616;42.692;23.312;2023-12-22T03:34:05;93503.72;;;3.77;82.99
11124;BME280;5616;42.692;23.312;2023-12-22T03:36:32;93510.69;;;3.68;83.66
11124;BME280;5616;42.692;23.312;2023-12-22T03:38:59;93499.94;;;3.72;82.84
11124;BME280;5616;42.692;23.312;2023-12-22T03:41:26;93510.50;;;3.55;84.05
11124;BME280;5616;42.692;23.312;2023-12-22T03:43:54;93492.91;;;3.60;82.70
11124;BME280;5616;42.692;23.312;2023-12-22T03:46:22;93499.22;;;3.64;83.87
11124;BME280;5616;42.692;23.312;2023-12-22T03:48:49;93490.25;;;3.68;83.67
11124;BME280;5616;42.692;23.312;2023-12-22T03:51:16;93504.78;;;3.67;84.37
11124;BME280;5616;42.692;23.312;2023-12-22T03:53:43;93491.31;;;3.74;84.86
11124;BME280;5616;42.692;23.312;2023-12-22T03:56:10;93496.22;;;3.75;83.63
11124;BME280;5616;42.692;23.312;2023-12-22T03:58:37;93489.38;;;3.61;84.08
11124;BME280;5616;42.692;23.312;2023-12-22T04:01:04;93495.28;;;3.76;84.88
11124;BME280;5616;42.692;23.312;2023-12-22T04:03:34;93492.38;;;3.64;84.58
11124;BME280;5616;42.692;23.312;2023-12-22T04:06:01;93497.38;;;3.72;85.63
11124;BME280;5616;42.692;23.312;2023-12-22T04:08:28;93494.91;;;3.79;85.23
11124;BME280;5616;42.692;23.312;2023-12-22T04:10:55;93500.19;;;3.78;85.79
11124;BME280;5616;42.692;23.312;2023-12-22T04:13:22;93494.81;;;3.87;86.10
11124;BME280;5616;42.692;23.312;2023-12-22T04:15:48;93493.66;;;3.90;85.11
11124;BME280;5616;42.692;23.312;2023-12-22T04:18:15;93496.94;;;3.84;85.16
11124;BME280;5616;42.692;23.312;2023-12-22T04:20:43;93493.03;;;3.88;84.91
11124;BME280;5616;42.692;23.312;2023-12-22T04:23:10;93494.63;;;3.89;84.53
11124;BME280;5616;42.692;23.312;2023-12-22T04:25:37;93497.69;;;3.99;84.48
11124;BME280;5616;42.692;23.312;2023-12-22T04:28:03;93493.00;;;4.02;85.59
11124;BME280;5616;42.692;23.312;2023-12-22T04:30:30;93480.41;;;4.01;84.90
11124;BME280;5616;42.692;23.312;2023-12-22T04:32:57;93483.75;;;4.01;84.31
11124;BME280;5616;42.692;23.312;2023-12-22T04:35:24;93492.94;;;3.96;86.31
11124;BME280;5616;42.692;23.312;2023-12-22T04:37:52;93476.47;;;3.98;85.35
11124;BME280;5616;42.692;23.312;2023-12-22T04:40:18;93480.59;;;3.99;85.13
11124;BME280;5616;42.692;23.312;2023-12-22T04:42:45;93465.19;;;3.93;86.74
11124;BME280;5616;42.692;23.312;2023-12-22T04:45:12;93471.91;;;3.94;87.21
11124;BME280;5616;42.692;23.312;2023-12-22T04:47:38;93469.69;;;3.91;87.63
11124;BME280;5616;42.692;23.312;2023-12-22T04:50:05;93457.38;;;3.94;86.03
11124;BME280;5616;42.692;23.312;2023-12-22T04:52:32;93454.75;;;3.88;87.44
11124;BME280;5616;42.692;23.312;2023-12-22T04:55:00;93479.66;;;3.86;87.99
11124;BME280;5616;42.692;23.312;2023-12-22T04:57:27;93460.63;;;3.88;89.28
11124;BME280;5616;42.692;23.312;2023-12-22T04:59:54;93469.88;;;3.89;86.38
11124;BME280;5616;42.692;23.312;2023-12-22T05:02:20;93461.09;;;3.92;87.92
11124;BME280;5616;42.692;23.312;2023-12-22T05:04:47;93461.69;;;3.94;86.97
11124;BME280;5616;42.692;23.312;2023-12-22T05:07:14;93451.72;;;3.99;87.38
11124;BME280;5616;42.692;23.312;2023-12-22T05:09:41;93446.56;;;3.92;88.14
11124;BME280;5616;42.692;23.312;2023-12-22T05:12:09;93436.97;;;3.80;88.70
11124;BME280;5616;42.692;23.312;2023-12-22T05:14:36;93449.75;;;3.80;90.66
11124;BME280;5616;42.692;23.312;2023-12-22T05:17:03;93444.72;;;3.86;90.86
11124;BME280;5616;42.692;23.312;2023-12-22T05:19:30;93449.13;;;3.92;90.33
11124;BME280;5616;42.692;23.312;2023-12-22T05:21:57;93443.38;;;3.90;89.38
11124;BME280;5616;42.692;23.312;2023-12-22T05:24:23;93447.56;;;3.98;89.55
11124;BME280;5616;42.692;23.312;2023-12-22T05:26:50;93455.41;;;4.11;89.90
11124;BME280;5616;42.692;23.312;2023-12-22T05:29:19;93443.41;;;3.76;88.85
11124;BME280;5616;42.692;23.312;2023-12-22T05:31:46;93454.38;;;3.91;90.25
11124;BME280;5616;42.692;23.312;2023-12-22T05:34:13;93460.78;;;4.01;88.86
11124;BME280;5616;42.692;23.312;2023-12-22T05:36:40;93454.28;;;3.99;89.10
11124;BME280;5616;42.692;23.312;2023-12-22T05:39:06;93455.66;;;4.01;88.76
11124;BME280;5616;42.692;23.312;2023-12-22T05:41:35;93447.66;;;4.04;89.29
11124;BME280;5616;42.692;23.312;2023-12-22T05:44:03;93455.91;;;4.06;89.36
11124;BME280;5616;42.692;23.312;2023-12-22T05:46:35;93442.44;;;4.12;89.78
11124;BME280;5616;42.692;23.312;2023-12-22T05:49:02;93437.13;;;4.14;89.52
11124;BME280;5616;42.692;23.312;2023-12-22T05:51:29;93450.81;;;4.06;88.97
11124;BME280;5616;42.692;23.312;2023-12-22T05:53:56;93442.63;;;4.11;89.50
11124;BME280;5616;42.692;23.312;2023-12-22T05:56:22;93449.75;;;4.15;91.08
11124;BME280;5616;42.692;23.312;2023-12-22T05:58:50;93438.66;;;4.08;90.33
11124;BME280;5616;42.692;23.312;2023-12-22T06:01:17;93447.00;;;4.17;90.34
11124;BME280;5616;42.692;23.312;2023-12-22T06:03:45;93429.84;;;4.11;89.64
11124;BME280;5616;42.692;23.312;2023-12-22T06:06:12;93445.31;;;4.24;88.51
11124;BME280;5616;42.692;23.312;2023-12-22T06:08:39;93451.97;;;4.25;88.54
11124;BME280;5616;42.692;23.312;2023-12-22T06:11:06;93443.75;;;4.29;89.04
11124;BME280;5616;42.692;23.312;2023-12-22T06:13:33;93455.66;;;4.37;88.87
11124;BME280;5616;42.692;23.312;2023-12-22T06:16:00;93443.63;;;4.38;89.38
11124;BME280;5616;42.692;23.312;2023-12-22T06:18:26;93456.81;;;4.35;88.75
11124;BME280;5616;42.692;23.312;2023-12-22T06:20:54;93447.19;;;4.37;90.03
11124;BME280;5616;42.692;23.312;2023-12-22T06:23:21;93451.94;;;4.40;89.22
11124;BME280;5616;42.692;23.312;2023-12-22T06:25:48;93453.56;;;4.26;90.11
11124;BME280;5616;42.692;23.312;2023-12-22T06:28:14;93452.91;;;4.17;91.26
11124;BME280;5616;42.692;23.312;2023-12-22T06:30:43;93460.19;;;4.20;91.35
11124;BME280;5616;42.692;23.312;2023-12-22T06:33:12;93461.22;;;4.26;92.08
11124;BME280;5616;42.692;23.312;2023-12-22T06:35:39;93458.81;;;4.39;91.16
11124;BME280;5616;42.692;23.312;2023-12-22T06:38:08;93461.97;;;4.41;91.17
11124;BME280;5616;42.692;23.312;2023-12-22T06:40:37;93466.47;;;4.39;91.65
11124;BME280;5616;42.692;23.312;2023-12-22T06:43:04;93464.28;;;4.36;91.80
11124;BME280;5616;42.692;23.312;2023-12-22T06:45:31;93466.09;;;4.42;90.68
11124;BME280;5616;42.692;23.312;2023-12-22T06:47:57;93474.97;;;4.46;89.75
11124;BME280;5616;42.692;23.312;2023-12-22T06:50:24;93468.22;;;4.39;91.16
11124;BME280;5616;42.692;23.312;2023-12-22T06:52:51;93471.81;;;4.23;91.57
11124;BME280;5616;42.692;23.312;2023-12-22T06:55:19;93468.03;;;4.40;91.19
11124;BME280;5616;42.692;23.312;2023-12-22T06:57:45;93471.50;;;4.54;91.58
11124;BME280;5616;42.692;23.312;2023-12-22T07:00:13;93462.91;;;4.61;90.49
11124;BME280;5616;42.692;23.312;2023-12-22T07:02:40;93478.75;;;4.71;90.11
11124;BME280;5616;42.692;23.312;2023-12-22T07:05:29;93475.03;;;4.74;90.68
11124;BME280;5616;42.692;23.312;2023-12-22T07:07:56;93473.31;;;4.81;90.72
11124;BME280;5616;42.692;23.312;2023-12-22T07:10:24;93470.91;;;4.79;90.74
11124;BME280;5616;42.692;23.312;2023-12-22T07:12:51;93477.03;;;4.78;91.16
11124;BME280;5616;42.692;23.312;2023-12-22T07:15:17;93477.28;;;4.90;91.06
11124;BME280;5616;42.692;23.312;2023-12-22T07:17:44;93475.03;;;5.02;90.98
11124;BME280;5616;42.692;23.312;2023-12-22T07:20:11;93471.16;;;5.06;90.58
11124;BME280;5616;42.692;23.312;2023-12-22T07:22:38;93483.75;;;5.14;90.27
11124;BME280;5616;42.692;23.312;2023-12-22T07:25:05;93494.19;;;5.12;90.01
11124;BME280;5616;42.692;23.312;2023-12-22T07:27:35;93487.69;;;5.10;90.25
11124;BME280;5616;42.692;23.312;2023-12-22T07:30:02;93490.00;;;5.05;90.36
11124;BME280;5616;42.692;23.312;2023-12-22T07:32:28;93489.06;;;5.12;90.49
11124;BME280;5616;42.692;23.312;2023-12-22T07:34:55;93489.91;;;5.19;90.54
11124;BME280;5616;42.692;23.312;2023-12-22T07:37:22;93482.84;;;5.21;90.84
11124;BME280;5616;42.692;23.312;2023-12-22T07:39:49;93495.88;;;5.26;91.32
11124;BME280;5616;42.692;23.312;2023-12-22T07:42:15;93486.47;;;5.33;91.12
11124;BME280;5616;42.692;23.312;2023-12-22T07:44:43;93496.91;;;5.32;91.56
11124;BME280;5616;42.692;23.312;2023-12-22T07:47:10;93495.88;;;5.26;92.03
11124;BME280;5616;42.692;23.312;2023-12-22T07:49:37;93488.59;;;5.30;92.13
11124;BME280;5616;42.692;23.312;2023-12-22T07:52:05;93502.84;;;5.39;92.53
11124;BME280;5616;42.692;23.312;2023-12-22T07:54:32;93505.41;;;5.39;91.58
11124;BME280;5616;42.692;23.312;2023-12-22T07:56:58;93506.72;;;5.35;91.76
11124;BME280;5616;42.692;23.312;2023-12-22T07:59:26;93511.34;;;5.46;91.78
11124;BME280;5616;42.692;23.312;2023-12-22T08:01:54;93517.44;;;5.45;91.78
11124;BME280;5616;42.692;23.312;2023-12-22T08:04:21;93516.22;;;5.41;92.58
11124;BME280;5616;42.692;23.312;2023-12-22T08:06:47;93520.38;;;5.42;92.31
11124;BME280;5616;42.692;23.312;2023-12-22T08:09:14;93538.09;;;5.43;92.62
11124;BME280;5616;42.692;23.312;2023-12-22T08:11:41;93533.63;;;5.52;91.86
11124;BME280;5616;42.692;23.312;2023-12-22T08:14:07;93546.22;;;5.53;90.92
11124;BME280;5616;42.692;23.312;2023-12-22T08:16:34;93542.72;;;5.54;90.89
11124;BME280;5616;42.692;23.312;2023-12-22T08:19:02;93550.59;;;5.53;91.02
11124;BME280;5616;42.692;23.312;2023-12-22T08:21:29;93552.13;;;5.47;90.98
11124;BME280;5616;42.692;23.312;2023-12-22T08:23:56;93550.19;;;5.56;92.61
11124;BME280;5616;42.692;23.312;2023-12-22T08:26:22;93545.69;;;5.58;92.07
11124;BME280;5616;42.692;23.312;2023-12-22T08:28:49;93553.59;;;5.63;92.57
11124;BME280;5616;42.692;23.312;2023-12-22T08:31:16;93545.06;;;5.56;93.38
11124;BME280;5616;42.692;23.312;2023-12-22T08:33:42;93557.69;;;5.57;93.35
11124;BME280;5616;42.692;23.312;2023-12-22T08:36:12;93552.94;;;5.54;93.49
11124;BME280;5616;42.692;23.312;2023-12-22T08:38:38;93551.56;;;5.58;93.86
11124;BME280;5616;42.692;23.312;2023-12-22T08:41:06;93555.34;;;5.63;93.75
11124;BME280;5616;42.692;23.312;2023-12-22T08:43:33;93552.66;;;5.71;93.71
11124;BME280;5616;42.692;23.312;2023-12-22T08:46:00;93552.13;;;5.82;93.49
11124;BME280;5616;42.692;23.312;2023-12-22T08:48:27;93549.03;;;5.86;93.19
11124;BME280;5616;42.692;23.312;2023-12-22T08:50:54;93545.88;;;5.91;93.03
11124;BME280;5616;42.692;23.312;2023-12-22T08:53:22;93555.34;;;5.90;93.68
11124;BME280;5616;42.692;23.312;2023-12-22T08:55:49;93555.75;;;5.94;93.44
11124;BME280;5616;42.692;23.312;2023-12-22T08:58:16;93551.44;;;5.94;93.95
11124;BME280;5616;42.692;23.312;2023-12-22T09:00:43;93556.78;;;5.99;94.31
11124;BME280;5616;42.692;23.312;2023-12-22T09:03:09;93564.69;;;6.04;94.58
11124;BME280;5616;42.692;23.312;2023-12-22T09:05:36;93569.00;;;6.04;93.91
11124;BME280;5616;42.692;23.312;2023-12-22T09:08:03;93572.41;;;6.18;94.15
11124;BME280;5616;42.692;23.312;2023-12-22T09:10:32;93570.88;;;6.30;94.11
11124;BME280;5616;42.692;23.312;2023-12-22T09:12:59;93585.81;;;6.13;93.78
11124;BME280;5616;42.692;23.312;2023-12-22T09:15:26;93580.25;;;6.09;94.73
11124;BME280;5616;42.692;23.312;2023-12-22T09:17:53;93582.88;;;6.23;95.35
11124;BME280;5616;42.692;23.312;2023-12-22T09:20:21;93573.88;;;6.33;95.04
11124;BME280;5616;42.692;23.312;2023-12-22T09:22:48;93582.34;;;6.34;95.07
11124;BME280;5616;42.692;23.312;2023-12-22T09:25:15;93576.59;;;6.25;94.72
11124;BME280;5616;42.692;23.312;2023-12-22T09:27:43;93573.06;;;6.33;94.68
11124;BME280;5616;42.692;23.312;2023-12-22T09:30:10;93564.03;;;6.43;94.78
11124;BME280;5616;42.692;23.312;2023-12-22T09:32:37;93562.88;;;6.52;94.59
11124;BME280;5616;42.692;23.312;2023-12-22T09:35:04;93568.03;;;6.59;94.06
11124;BME280;5616;42.692;23.312;2023-12-22T09:37:31;93562.69;;;6.47;94.19
11124;BME280;5616;42.692;23.312;2023-12-22T09:39:58;93563.69;;;6.59;95.29
11124;BME280;5616;42.692;23.312;2023-12-22T09:42:25;93559.56;;;6.65;95.08
11124;BME280;5616;42.692;23.312;2023-12-22T09:44:55;93565.88;;;6.62;95.49
11124;BME280;5616;42.692;23.312;2023-12-22T09:47:26;93558.41;;;6.81;94.84
11124;BME280;5616;42.692;23.312;2023-12-22T09:49:55;93553.09;;;6.89;94.16
11124;BME280;5616;42.692;23.312;2023-12-22T09:52:22;93557.81;;;6.85;93.36
11124;BME280;5616;42.692;23.312;2023-12-22T09:54:49;93565.13;;;6.88;92.11
11124;BME280;5616;42.692;23.312;2023-12-22T09:57:16;93562.75;;;6.93;93.34
11124;BME280;5616;42.692;23.312;2023-12-22T09:59:43;93548.38;;;7.05;92.44
11124;BME280;5616;42.692;23.312;2023-12-22T10:02:12;93549.16;;;7.12;92.51
11124;BME280;5616;42.692;23.312;2023-12-22T10:04:38;93545.81;;;7.18;91.82
11124;BME280;5616;42.692;23.312;2023-12-22T10:07:06;93528.63;;;7.25;92.34
11124;BME280;5616;42.692;23.312;2023-12-22T10:09:34;93544.63;;;7.27;91.79
11124;BME280;5616;42.692;23.312;2023-12-22T10:12:03;93544.03;;;7.32;92.10
11124;BME280;5616;42.692;23.312;2023-12-22T10:14:31;93544.22;;;7.30;92.81
11124;BME280;5616;42.692;23.312;2023-12-22T10:17:01;93529.22;;;7.27;93.50
11124;BME280;5616;42.692;23.312;2023-12-22T10:19:29;93521.91;;;7.24;93.04
11124;BME280;5616;42.692;23.312;2023-12-22T10:21:56;93513.81;;;7.40;93.73
11124;BME280;5616;42.692;23.312;2023-12-22T10:24:39;93513.59;;;7.49;93.62
11124;BME280;5616;42.692;23.312;2023-12-22T10:27:08;93508.03;;;7.65;93.00
11124;BME280;5616;42.692;23.312;2023-12-22T10:29:35;93489.22;;;7.84;92.55
11124;BME280;5616;42.692;23.312;2023-12-22T10:32:02;93495.47;;;8.08;91.35
11124;BME280;5616;42.692;23.312;2023-12-22T10:34:31;93492.81;;;8.27;91.26
11124;BME280;5616;42.692;23.312;2023-12-22T10:36:59;93495.94;;;8.36;90.95
11124;BME280;5616;42.692;23.312;2023-12-22T10:39:27;93482.44;;;8.47;90.00
11124;BME280;5616;42.692;23.312;2023-12-22T10:41:54;93473.69;;;8.54;89.28
11124;BME280;5616;42.692;23.312;2023-12-22T10:44:23;93470.44;;;8.66;87.87
11124;BME280;5616;42.692;23.312;2023-12-22T10:46:50;93466.28;;;8.65;88.34
11124;BME280;5616;42.692;23.312;2023-12-22T10:49:18;93451.00;;;8.70;88.20
11124;BME280;5616;42.692;23.312;2023-12-22T10:51:46;93449.56;;;8.80;88.45
11124;BME280;5616;42.692;23.312;2023-12-22T10:54:13;93448.72;;;8.86;88.36
11124;BME280;5616;42.692;23.312;2023-12-22T10:56:39;93453.38;;;8.96;89.06
11124;BME280;5616;42.692;23.312;2023-12-22T10:59:06;93450.41;;;8.99;88.05
11124;BME280;5616;42.692;23.312;2023-12-22T11:01:35;93451.75;;;9.01;87.70
11124;BME280;5616;42.692;23.312;2023-12-22T11:04:06;93450.66;;;9.15;87.60
11124;BME280;5616;42.692;23.312;2023-12-22T11:06:35;93448.72;;;9.11;87.60
11124;BME280;5616;42.692;23.312;2023-12-22T11:09:07;93439.56;;;9.15;86.38
11124;BME280;5616;42.692;23.312;2023-12-22T11:11:35;93437.53;;;9.23;85.82
11124;BME280;5616;42.692;23.312;2023-12-22T11:14:03;93420.19;;;9.31;86.56
11124;BME280;5616;42.692;23.312;2023-12-22T11:16:31;93409.25;;;9.35;86.40
11124;BME280;5616;42.692;23.312;2023-12-22T11:19:00;93398.47;;;9.45;85.79
11124;BME280;5616;42.692;23.312;2023-12-22T11:21:27;93404.91;;;9.36;85.39
11124;BME280;5616;42.692;23.312;2023-12-22T11:23:56;93403.69;;;9.38;85.63
11124;BME280;5616;42.692;23.312;2023-12-22T11:26:25;93406.19;;;9.27;86.47
11124;BME280;5616;42.692;23.312;2023-12-22T11:28:52;93410.28;;;9.34;86.82
11124;BME280;5616;42.692;23.312;2023-12-22T11:31:19;93408.13;;;9.31;86.14
11124;BME280;5616;42.692;23.312;2023-12-22T11:33:47;93426.28;;;9.18;87.55
11124;BME280;5616;42.692;23.312;2023-12-22T11:36:15;93434.00;;;9.18;86.05
11124;BME280;5616;42.692;23.312;2023-12-22T11:38:44;93426.44;;;9.23;84.03
11124;BME280;5616;42.692;23.312;2023-12-22T11:41:15;93442.59;;;9.30;81.82
11124;BME280;5616;42.692;23.312;2023-12-22T11:43:46;93447.41;;;9.27;81.59
11124;BME280;5616;42.692;23.312;2023-12-22T11:46:16;93460.78;;;9.35;81.11
11124;BME280;5616;42.692;23.312;2023-12-22T11:48:47;93458.66;;;9.32;81.00
11124;BME280;5616;42.692;23.312;2023-12-22T11:51:15;93460.44;;;9.32;81.25
11124;BME280;5616;42.692;23.312;2023-12-22T11:53:42;93459.56;;;9.38;80.91
11124;BME280;5616;42.692;23.312;2023-12-22T11:56:09;93453.28;;;9.34;79.08
11124;BME280;5616;42.692;23.312;2023-12-22T11:58:38;93452.44;;;9.40;79.38
11124;BME280;5616;42.692;23.312;2023-12-22T12:01:07;93453.22;;;9.40;78.72
11124;BME280;5616;42.692;23.312;2023-12-22T12:03:37;93464.50;;;9.39;77.83
11124;BME280;5616;42.692;23.312;2023-12-22T12:06:14;93455.84;;;9.34;76.97
11124;BME280;5616;42.692;23.312;2023-12-22T12:08:41;93447.97;;;9.04;78.66
11124;BME280;5616;42.692;23.312;2023-12-22T12:11:08;93433.75;;;8.77;77.57
11124;BME280;5616;42.692;23.312;2023-12-22T12:13:41;93472.78;;;8.98;78.24
11124;BME280;5616;42.692;23.312;2023-12-22T12:16:10;93461.91;;;8.96;77.86
11124;BME280;5616;42.692;23.312;2023-12-22T12:18:38;93458.69;;;9.01;77.36
11124;BME280;5616;42.692;23.312;2023-12-22T12:21:06;93451.19;;;8.99;77.15
11124;BME280;5616;42.692;23.312;2023-12-22T12:23:33;93442.06;;;9.03;77.17
11124;BME280;5616;42.692;23.312;2023-12-22T12:26:00;93438.16;;;8.94;77.06
11124;BME280;5616;42.692;23.312;2023-12-22T12:28:29;93425.06;;;8.96;76.68
11124;BME280;5616;42.692;23.312;2023-12-22T12:31:00;93425.78;;;8.85;77.78
11124;BME280;5616;42.692;23.312;2023-12-22T12:33:28;93428.72;;;8.64;76.69
11124;BME280;5616;42.692;23.312;2023-12-22T12:35:57;93426.66;;;8.47;77.19
11124;BME280;5616;42.692;23.312;2023-12-22T12:38:40;93417.28;;;8.22;76.82
11124;BME280;5616;42.692;23.312;2023-12-22T12:41:09;93411.84;;;8.05;77.40
11124;BME280;5616;42.692;23.312;2023-12-22T12:43:41;93394.09;;;7.97;78.21
11124;BME280;5616;42.692;23.312;2023-12-22T12:46:08;93391.28;;;7.98;78.62
11124;BME280;5616;42.692;23.312;2023-12-22T12:48:37;93391.28;;;8.05;78.52
11124;BME280;5616;42.692;23.312;2023-12-22T12:51:04;93395.66;;;7.98;79.28
11124;BME280;5616;42.692;23.312;2023-12-22T12:53:32;93405.88;;;8.11;80.04
11124;BME280;5616;42.692;23.312;2023-12-22T12:55:59;93412.91;;;8.22;77.11
11124;BME280;5616;42.692;23.312;2023-12-22T12:58:28;93422.56;;;8.33;77.50
11124;BME280;5616;42.692;23.312;2023-12-22T13:01:04;93430.63;;;8.43;76.25
11124;BME280;5616;42.692;23.312;2023-12-22T13:03:31;93439.28;;;8.49;75.33
11124;BME280;5616;42.692;23.312;2023-12-22T13:06:07;93447.16;;;8.54;75.16
11124;BME280;5616;42.692;23.312;2023-12-22T13:08:34;93446.81;;;8.50;74.94
11124;BME280;5616;42.692;23.312;2023-12-22T13:11:01;93444.28;;;8.44;74.51
11124;BME280;5616;42.692;23.312;2023-12-22T13:13:28;93414.84;;;8.40;76.31